El Tigre, Venezuela
Current Conditions -  °F | °C
As of 2:00 AM on Thursday 23 Oct 2014 (Local Time) from SVBC Reporting Station
Few Clouds Few Clouds  
Wind Chill: 81°   Ceiling: Unl
Heat Index: 89°   Visibility: 6mi
Dew Point: 81°   Wind: 0mph
Humidity: 100%   Direction: NA
Pressure: 29.88"   Gusts: NA
Location:  8.89°N, 64.26°W
Report Text: SVBC 230600Z 00000KT 9999 FEW010 27/27 Q1012
Loading
Personal Weather Stations






























Interactive Weather Map
Tropical Storm Tracking
New forecast layout! Learn more

10-Day Weather Forecast

Advertisements
Track Severe Weather on mobile